Time;durP1;ratioP1;P1;durP2;ratioP2;P2;SDS_P1;SDS_P2;PMS_P1;PMS_P2;Temp;Humidity;BMP_temperature;BMP_pressure;BME280_temperature;BME280_humidity;BME280_pressure;Samples;Min_cycle;Max_cycle;Signal;HPM_P1;HPM_P2
2022/01/31 00:02:26;;;;;;;18.17;6.57;;;;;;;5.09;100.00;101489.84;5236326;28;20021;-70
2022/01/31 00:04:58;;;;;;;17.23;5.50;;;;;;;5.09;100.00;101465.63;5237109;28;20025;-70
2022/01/31 00:07:29;;;;;;;18.20;5.88;;;;;;;5.10;100.00;101436.97;5236050;28;20028;-71
2022/01/31 00:10:06;;;;;;;19.33;5.88;;;;;;;5.13;100.00;101423.00;5236362;28;20033;-70
2022/01/31 00:12:53;;;;;;;17.38;5.72;;;;;;;5.06;100.00;101400.88;5236716;28;20025;-70
2022/01/31 00:15:26;;;;;;;19.08;6.57;;;;;;;5.11;100.00;101404.91;5218875;28;20496;-70
2022/01/31 00:17:57;;;;;;;20.13;5.75;;;;;;;5.10;100.00;101413.59;5236620;28;20095;-70
2022/01/31 00:20:28;;;;;;;16.00;5.40;;;;;;;5.12;100.00;101379.78;5235590;28;20033;-71
2022/01/31 00:22:59;;;;;;;14.95;5.50;;;;;;;5.19;100.00;101388.06;5236291;28;20112;-71
2022/01/31 00:25:31;;;;;;;16.27;5.95;;;;;;;5.25;100.00;101390.34;5236333;28;20028;-71
2022/01/31 00:28:02;;;;;;;21.02;6.20;;;;;;;5.24;100.00;101366.13;5235625;28;20068;-71
2022/01/31 00:30:33;;;;;;;16.48;5.63;;;;;;;5.23;100.00;101364.47;5236689;28;20402;-71
2022/01/31 00:33:05;;;;;;;18.35;6.10;;;;;;;5.23;100.00;101356.66;5234462;28;20255;-71
2022/01/31 00:35:36;;;;;;;19.85;6.00;;;;;;;5.24;100.00;101337.56;5236591;28;20025;-71
2022/01/31 00:38:07;;;;;;;16.08;5.70;;;;;;;5.27;100.00;101318.38;5236549;28;20018;-71
2022/01/31 00:40:41;;;;;;;17.42;5.68;;;;;;;5.26;100.00;101319.28;5235899;28;20545;-72
2022/01/31 00:43:14;;;;;;;17.45;5.82;;;;;;;5.20;100.00;101302.28;5231484;28;20289;-71
2022/01/31 00:46:03;;;;;;;15.50;5.10;;;;;;;5.21;100.00;101287.53;5218689;28;20025;-71
2022/01/31 00:48:40;;;;;;;19.95;6.13;;;;;;;5.23;100.00;101275.31;5235570;28;20091;-72
2022/01/31 00:51:12;;;;;;;18.08;6.30;;;;;;;5.15;100.00;101267.06;5235705;28;20095;-71
2022/01/31 00:53:43;;;;;;;22.85;6.10;;;;;;;5.12;100.00;101261.16;5251839;23;20058;-72
2022/01/31 00:56:14;;;;;;;22.85;6.90;;;;;;;5.10;100.00;101247.38;5227637;28;20038;-72
2022/01/31 00:58:46;;;;;;;20.08;5.97;;;;;;;5.05;100.00;101239.03;5232507;28;20063;-72
2022/01/31 01:01:17;;;;;;;19.13;5.90;;;;;;;5.04;100.00;101226.97;5235645;28;20037;-72
2022/01/31 01:03:48;;;;;;;19.15;5.28;;;;;;;5.03;100.00;101212.28;5228498;28;20088;-72
2022/01/31 01:06:21;;;;;;;16.42;5.40;;;;;;;5.08;100.00;101201.69;5219852;28;20026;-72
2022/01/31 01:08:52;;;;;;;19.33;6.22;;;;;;;5.03;100.00;101204.50;5221394;28;20029;-72
2022/01/31 01:11:24;;;;;;;17.58;6.00;;;;;;;5.02;100.00;101196.81;5218479;28;20038;-73
2022/01/31 01:13:55;;;;;;;19.40;5.53;;;;;;;5.01;100.00;101188.19;5219811;28;20034;-72
2022/01/31 01:16:26;;;;;;;21.40;6.95;;;;;;;5.02;100.00;101176.88;5203914;28;20482;-72
2022/01/31 01:18:57;;;;;;;18.50;6.53;;;;;;;4.92;100.00;101149.75;5220318;28;20538;-72
2022/01/31 01:21:29;;;;;;;22.27;7.03;;;;;;;5.05;100.00;101150.75;5219203;28;20501;-73
2022/01/31 01:24:00;;;;;;;20.58;5.80;;;;;;;5.03;100.00;101134.41;5223181;28;20030;-72
2022/01/31 01:26:32;;;;;;;25.42;6.63;;;;;;;5.05;100.00;101129.97;5219581;28;20028;-71
2022/01/31 01:29:03;;;;;;;25.98;8.18;;;;;;;5.05;100.00;101114.38;5217399;28;20029;-73
2022/01/31 01:31:35;;;;;;;18.90;5.63;;;;;;;5.10;100.00;101120.13;5220659;28;20089;-73
2022/01/31 01:34:06;;;;;;;18.42;6.28;;;;;;;5.05;100.00;101111.78;5217459;28;20029;-72
2022/01/31 01:36:38;;;;;;;19.90;5.97;;;;;;;5.09;100.00;101097.69;5217930;28;20110;-73
2022/01/31 01:39:10;;;;;;;20.40;5.90;;;;;;;5.07;100.00;101099.53;5196819;28;20030;-73
2022/01/31 01:41:43;;;;;;;23.60;6.65;;;;;;;5.08;100.00;101077.84;5215174;28;20479;-73
2022/01/31 01:44:15;;;;;;;25.20;6.75;;;;;;;5.05;100.00;101074.59;5203514;28;20037;-73
2022/01/31 01:46:46;;;;;;;19.52;6.88;;;;;;;5.10;100.00;101067.38;5219484;28;20616;-73
2022/01/31 01:49:19;;;;;;;25.08;7.20;;;;;;;5.11;100.00;101051.72;5219584;28;20055;-72
2022/01/31 01:51:50;;;;;;;27.85;7.00;;;;;;;5.09;100.00;101045.75;5220927;28;20026;-73
2022/01/31 01:54:21;;;;;;;18.75;6.20;;;;;;;5.15;100.00;101022.94;5203062;28;20140;-73
2022/01/31 01:56:53;;;;;;;21.67;6.18;;;;;;;5.17;100.00;101024.53;5217651;28;20022;-73
2022/01/31 01:59:25;;;;;;;20.40;6.15;;;;;;;5.16;100.00;101001.25;5218353;28;20036;-73
2022/01/31 02:01:56;;;;;;;14.23;5.80;;;;;;;5.16;100.00;100991.69;5218958;28;20026;-73
2022/01/31 02:04:28;;;;;;;19.13;5.88;;;;;;;5.23;100.00;100987.81;5219155;28;20022;-73
2022/01/31 02:06:59;;;;;;;18.40;6.32;;;;;;;5.20;100.00;100976.78;5216573;28;20121;-73
2022/01/31 02:09:41;;;;;;;15.75;5.32;;;;;;;5.21;100.00;100962.84;5221213;28;20490;-73
2022/01/31 02:12:12;;;;;;;15.02;5.72;;;;;;;5.14;100.00;100944.19;5219947;28;20513;-73
2022/01/31 02:14:44;;;;;;;17.48;5.43;;;;;;;5.29;100.00;100961.44;5219402;28;20021;-73
2022/01/31 02:17:15;;;;;;;17.83;5.20;;;;;;;5.26;100.00;100961.63;5218960;28;20021;-73
2022/01/31 02:19:46;;;;;;;15.75;5.20;;;;;;;5.32;100.00;100952.66;5218772;28;20075;-73
2022/01/31 02:22:18;;;;;;;15.43;5.00;;;;;;;5.32;100.00;100947.44;5217887;28;20038;-72
2022/01/31 02:24:49;;;;;;;14.07;5.30;;;;;;;5.30;100.00;100941.50;5216654;28;20430;-73
2022/01/31 02:27:31;;;;;;;19.30;5.82;;;;;;;5.32;100.00;100934.47;5220111;28;20443;-73
2022/01/31 02:30:06;;;;;;;14.20;5.03;;;;;;;5.38;100.00;100934.09;5216117;28;20034;-73
2022/01/31 02:32:38;;;;;;;13.10;5.22;;;;;;;5.41;100.00;100946.03;5217292;28;20041;-72
2022/01/31 02:35:11;;;;;;;12.80;5.15;;;;;;;5.44;100.00;100938.91;5215884;28;20055;-73
2022/01/31 02:37:42;;;;;;;;;;;;;;;5.82;100.00;100951.25;5218178;28;20048;-72
2022/01/31 02:40:14;;;;;;;14.03;6.63;;;;;;;5.54;100.00;100941.78;5219822;28;20558;-73
2022/01/31 02:42:45;;;;;;;13.10;5.65;;;;;;;5.53;100.00;100921.88;5217501;28;20277;-73
2022/01/31 02:45:16;;;;;;;12.85;5.45;;;;;;;5.53;100.00;100914.09;5199064;28;20026;-73
2022/01/31 02:47:53;;;;;;;10.30;5.97;;;;;;;5.56;100.00;100903.50;5218780;28;20061;-73
2022/01/31 02:50:25;;;;;;;10.02;5.32;;;;;;;5.65;100.00;100909.91;5220455;28;20707;-73
2022/01/31 02:53:10;;;;;;;14.27;5.90;;;;;;;5.63;100.00;100894.41;5215378;28;20033;-72
2022/01/31 02:55:45;;;;;;;10.52;5.70;;;;;;;5.77;100.00;100893.53;5219897;28;20475;-73
2022/01/31 02:58:17;;;;;;;10.93;5.35;;;;;;;5.81;100.00;100885.44;5208578;28;20022;-73
2022/01/31 03:00:49;;;;;;;11.95;4.95;;;;;;;5.91;100.00;100890.03;5216347;28;20038;-73
2022/01/31 03:03:21;;;;;;;10.27;5.50;;;;;;;5.95;100.00;100875.97;5216997;28;20095;-73
2022/01/31 03:05:52;;;;;;;8.38;5.50;;;;;;;6.02;100.00;100887.59;5215578;28;20080;-73
2022/01/31 03:08:24;;;;;;;14.50;5.60;;;;;;;6.04;100.00;100877.94;5217018;28;20633;-73
2022/01/31 03:10:55;;;;;;;10.75;5.05;;;;;;;6.13;100.00;100897.31;5216919;28;20077;-73
2022/01/31 03:13:27;;;;;;;11.43;5.20;;;;;;;6.14;100.00;100888.56;5218398;28;20017;-73
2022/01/31 03:15:58;;;;;;;14.18;5.05;;;;;;;6.21;100.00;100900.25;5214602;28;20120;-73
2022/01/31 03:18:31;;;;;;;11.60;5.35;;;;;;;6.23;100.00;100887.97;5216279;28;20029;-73
2022/01/31 03:21:03;;;;;;;11.60;4.93;;;;;;;6.25;100.00;100888.69;5219431;28;20029;-73
2022/01/31 03:23:34;;;;;;;12.18;5.28;;;;;;;6.26;100.00;100875.59;5218289;28;20111;-73
2022/01/31 03:26:06;;;;;;;15.85;4.95;;;;;;;6.29;100.00;100861.56;5219798;28;20026;-73
2022/01/31 03:28:37;;;;;;;18.20;5.38;;;;;;;6.27;100.00;100866.03;5216339;28;20502;-73
2022/01/31 03:31:08;;;;;;;19.23;4.30;;;;;;;6.33;100.00;100863.03;5216244;28;20108;-73
2022/01/31 03:33:40;;;;;;;13.43;4.25;;;;;;;6.39;100.00;100869.56;5216852;28;20025;-73
2022/01/31 03:36:11;;;;;;;17.05;4.28;;;;;;;6.43;100.00;100869.25;5221828;28;20028;-73
2022/01/31 03:38:42;;;;;;;15.82;4.30;;;;;;;6.42;100.00;100854.59;5203950;28;20025;-73
2022/01/31 03:41:16;;;;;;;14.85;4.10;;;;;;;6.39;100.00;100840.94;5220879;28;20426;-73
2022/01/31 03:43:48;;;;;;;11.70;3.38;;;;;;;6.46;100.00;100840.44;5222649;28;20502;-73
2022/01/31 03:46:20;;;;;;;12.90;4.38;;;;;;;6.47;100.00;100836.06;5221287;28;20029;-73
2022/01/31 03:48:51;;;;;;;18.65;4.03;;;;;;;6.46;100.00;100824.81;5223380;28;20029;-73
2022/01/31 03:51:22;;;;;;;19.55;4.47;;;;;;;6.50;100.00;100828.06;5220193;28;20316;-73
2022/01/31 03:53:54;;;;;;;17.85;4.03;;;;;;;6.50;100.00;100826.28;5219279;28;20050;-73
2022/01/31 03:56:25;;;;;;;11.52;3.10;;;;;;;6.51;100.00;100829.72;5221766;28;20025;-73
2022/01/31 03:58:56;;;;;;;17.00;3.42;;;;;;;6.57;100.00;100834.50;5222082;28;20026;-74
2022/01/31 04:01:28;;;;;;;14.25;3.10;;;;;;;6.64;100.00;100840.13;5220073;28;20088;-73
2022/01/31 04:03:59;;;;;;;14.40;2.95;;;;;;;6.65;100.00;100839.19;5220916;28;20573;-73
2022/01/31 04:06:30;;;;;;;22.52;3.95;;;;;;;6.69;100.00;100849.28;5219639;28;20025;-73
2022/01/31 04:09:01;;;;;;;21.98;3.67;;;;;;;6.68;100.00;100849.41;5221855;28;20029;-74
2022/01/31 04:11:33;;;;;;;12.68;2.90;;;;;;;6.65;100.00;100829.59;5223388;28;20038;-73
2022/01/31 04:14:05;;;;;;;11.27;2.33;;;;;;;6.76;100.00;100867.94;5218959;28;20030;-73
2022/01/31 04:16:36;;;;;;;15.15;3.40;;;;;;;6.71;100.00;100838.78;5220570;28;20023;-73
2022/01/31 04:19:07;;;;;;;13.98;3.33;;;;;;;6.77;100.00;100833.13;5219043;28;20029;-73
2022/01/31 04:21:39;;;;;;;17.60;2.72;;;;;;;6.79;100.00;100832.09;5220882;28;20080;-73
2022/01/31 04:24:10;;;;;;;14.27;2.95;;;;;;;6.76;100.00;100827.09;5218999;28;20509;-73
2022/01/31 04:26:45;;;;;;;14.23;2.80;;;;;;;6.75;100.00;100825.44;5218926;28;20029;-74
2022/01/31 04:29:18;;;;;;;19.90;3.70;;;;;;;6.76;100.00;100818.47;5220211;28;20534;-74
2022/01/31 04:31:51;;;;;;;14.20;2.50;;;;;;;6.76;100.00;100821.88;5219484;28;20022;-73
2022/01/31 04:34:23;;;;;;;12.55;3.15;;;;;;;6.80;100.00;100830.31;5217744;28;20061;-73
2022/01/31 04:36:54;;;;;;;10.77;2.53;;;;;;;6.71;100.00;100808.38;5218955;28;20061;-73
2022/01/31 04:39:28;;;;;;;20.08;4.05;;;;;;;6.76;100.00;100813.25;5217676;28;20052;-73
2022/01/31 04:41:59;;;;;;;15.18;3.40;;;;;;;6.74;100.00;100817.72;5196741;28;20281;-72
2022/01/31 04:44:30;;;;;;;12.77;3.30;;;;;;;6.77;100.00;100817.50;5215695;28;20026;-73
2022/01/31 04:47:02;;;;;;;15.70;2.92;;;;;;;6.76;100.00;100813.25;5216411;28;20026;-73
2022/01/31 04:49:35;;;;;;;14.55;3.22;;;;;;;6.80;100.00;100810.31;5218834;28;20083;-73
2022/01/31 04:52:06;;;;;;;16.98;3.05;;;;;;;6.80;100.00;100812.94;5217882;28;20036;-74
2022/01/31 04:54:37;;;;;;;14.57;2.75;;;;;;;6.84;100.00;100821.34;5221425;28;20049;-73
2022/01/31 04:57:09;;;;;;;13.25;2.38;;;;;;;6.79;100.00;100821.69;5198594;28;20080;-73
2022/01/31 04:59:43;;;;;;;10.90;3.35;;;;;;;6.75;100.00;100816.81;5218180;28;20022;-73
2022/01/31 05:02:14;;;;;;;10.57;2.42;;;;;;;6.71;100.00;100824.00;5218015;28;20565;-73
2022/01/31 05:04:46;;;;;;;14.18;2.67;;;;;;;6.72;100.00;100801.38;5218830;28;20139;-73
2022/01/31 05:07:17;;;;;;;13.23;2.67;;;;;;;6.72;100.00;100814.41;5219802;28;20548;-73
2022/01/31 05:09:48;;;;;;;13.05;2.70;;;;;;;6.78;100.00;100809.63;5219995;28;20079;-72
2022/01/31 05:12:20;;;;;;;17.73;3.58;;;;;;;6.72;100.00;100812.63;5220258;28;20093;-73
2022/01/31 05:14:51;;;;;;;17.70;3.28;;;;;;;6.77;100.00;100801.88;5219548;28;20029;-73
2022/01/31 05:17:22;;;;;;;19.65;3.58;;;;;;;6.76;100.00;100795.03;5220689;28;20010;-72
2022/01/31 05:19:53;;;;;;;10.68;2.50;;;;;;;6.70;100.00;100790.22;5221562;28;20060;-73
2022/01/31 05:22:25;;;;;;;12.75;2.22;;;;;;;6.75;100.00;100793.38;5219823;28;20054;-73
2022/01/31 05:24:56;;;;;;;17.27;3.35;;;;;;;6.71;100.00;100786.72;5216408;28;20030;-72
2022/01/31 05:27:28;;;;;;;13.23;2.53;;;;;;;6.70;100.00;100791.06;5219804;28;20026;-73
2022/01/31 05:29:59;;;;;;;16.17;3.17;;;;;;;6.72;100.00;100788.38;5221044;28;20061;-73
2022/01/31 05:32:30;;;;;;;12.18;2.80;;;;;;;6.78;100.00;100783.56;5221395;28;20029;-73
2022/01/31 05:35:04;;;;;;;16.58;3.10;;;;;;;6.68;100.00;100766.09;5218696;28;20064;-73
2022/01/31 05:37:36;;;;;;;11.77;3.17;;;;;;;6.67;100.00;100764.44;5219022;28;20030;-73
2022/01/31 05:40:08;;;;;;;19.17;3.30;;;;;;;6.60;100.00;100773.59;5219963;28;20040;-72
2022/01/31 05:42:40;;;;;;;12.50;3.03;;;;;;;6.69;100.00;100759.94;5217874;28;20040;-73
2022/01/31 05:45:11;;;;;;;18.75;3.47;;;;;;;6.69;100.00;100746.91;5220097;28;20102;-73
2022/01/31 05:47:42;;;;;;;14.88;3.17;;;;;;;6.62;100.00;100750.88;5219675;28;20037;-73
2022/01/31 05:50:14;;;;;;;13.45;2.88;;;;;;;6.73;100.00;100744.00;5219640;28;20080;-73
2022/01/31 05:52:45;;;;;;;18.25;3.20;;;;;;;6.60;100.00;100747.56;5220606;28;20057;-73
2022/01/31 05:55:17;;;;;;;12.48;2.83;;;;;;;6.56;100.00;100741.75;5220574;28;20050;-73
2022/01/31 05:57:48;;;;;;;10.15;2.33;;;;;;;6.49;100.00;100756.94;5217545;28;20068;-72
2022/01/31 06:00:19;;;;;;;15.38;2.97;;;;;;;6.44;100.00;100758.19;5218459;28;20489;-72
2022/01/31 06:02:57;;;;;;;16.70;3.17;;;;;;;6.44;100.00;100790.28;5217756;28;20410;-74
2022/01/31 06:05:28;;;;;;;16.98;3.08;;;;;;;6.32;100.00;100775.47;5216031;28;20037;-72
2022/01/31 06:08:00;;;;;;;13.63;3.00;;;;;;;6.24;100.00;100772.56;5218491;28;20033;-72
2022/01/31 06:10:33;;;;;;;13.38;2.58;;;;;;;6.24;100.00;100778.59;5217681;28;20080;-73
2022/01/31 06:13:04;;;;;;;9.02;2.65;;;;;;;6.22;100.00;100782.25;5215729;28;20552;-73
2022/01/31 06:15:35;;;;;;;16.00;3.08;;;;;;;6.17;100.00;100785.16;5214137;28;20029;-73
2022/01/31 06:18:06;;;;;;;17.63;3.15;;;;;;;6.12;100.00;100789.84;5218206;28;20026;-73
2022/01/31 06:20:38;;;;;;;20.67;3.65;;;;;;;6.14;100.00;100782.78;5216567;28;20254;-73
2022/01/31 06:23:10;;;;;;;17.15;3.10;;;;;;;6.15;100.00;100789.63;5216734;28;20033;-72
2022/01/31 06:25:41;;;;;;;14.75;3.10;;;;;;;6.16;100.00;100785.25;5218949;28;20026;-73
2022/01/31 06:28:12;;;;;;;14.05;2.70;;;;;;;6.04;100.00;100772.16;5219465;28;20025;-74
2022/01/31 06:30:44;;;;;;;12.18;2.50;;;;;;;6.15;100.00;100794.00;5217016;28;20501;-73
2022/01/31 06:33:16;;;;;;;10.70;2.60;;;;;;;6.07;100.00;100779.75;5200542;28;20049;-74
2022/01/31 06:35:47;;;;;;;14.10;2.50;;;;;;;6.05;100.00;100789.41;5200112;28;20398;-74
2022/01/31 06:38:18;;;;;;;11.98;2.72;;;;;;;5.98;100.00;100777.75;5216504;28;20321;-74
2022/01/31 06:40:50;;;;;;;15.10;2.72;;;;;;;5.92;100.00;100779.91;5217987;28;20116;-74
2022/01/31 06:43:21;;;;;;;16.08;2.83;;;;;;;5.92;100.00;100767.78;5217838;28;20112;-74
2022/01/31 06:45:52;;;;;;;16.13;2.67;;;;;;;5.89;100.00;100786.13;5215333;28;20307;-73
2022/01/31 06:48:24;;;;;;;15.40;3.05;;;;;;;5.86;100.00;100791.53;5216033;28;20129;-73
2022/01/31 06:50:55;;;;;;;12.45;3.15;;;;;;;5.92;100.00;100785.13;5214598;28;20029;-74
2022/01/31 06:53:29;;;;;;;16.25;3.33;;;;;;;5.86;100.00;100787.16;5224688;23;20036;-72
2022/01/31 06:56:01;;;;;;;17.33;2.83;;;;;;;5.82;100.00;100783.09;5213989;28;20033;-72
2022/01/31 06:58:32;;;;;;;18.13;3.80;;;;;;;5.78;100.00;100778.22;5217882;28;20044;-72
2022/01/31 07:01:03;;;;;;;17.80;3.05;;;;;;;5.67;100.00;100760.72;5225423;28;20036;-72
2022/01/31 07:03:36;;;;;;;13.05;2.45;;;;;;;5.81;100.00;100788.41;5222475;28;20033;-72
2022/01/31 07:06:07;;;;;;;19.43;3.90;;;;;;;5.83;100.00;100783.94;5222903;28;20550;-72
2022/01/31 07:08:39;;;;;;;14.25;2.92;;;;;;;5.81;100.00;100785.81;5212958;28;20502;-72
2022/01/31 07:11:15;;;;;;;16.30;2.70;;;;;;;5.76;100.00;100793.09;5228980;28;20029;-72
2022/01/31 07:13:49;;;;;;;13.75;3.70;;;;;;;5.76;100.00;100791.31;5227627;28;20524;-72
2022/01/31 07:16:20;;;;;;;16.92;3.20;;;;;;;5.71;100.00;100774.34;5233012;28;20018;-72
2022/01/31 07:18:55;;;;;;;12.95;3.25;;;;;;;5.67;100.00;100772.88;5230608;28;20025;-72
2022/01/31 07:21:34;;;;;;;13.45;3.22;;;;;;;5.71;100.00;100763.94;5227463;28;20021;-72
2022/01/31 07:24:31;;;;;;;17.85;3.03;;;;;;;5.68;100.00;100759.78;5229506;28;20385;-72
2022/01/31 07:27:03;;;;;;;14.95;2.80;;;;;;;5.65;100.00;100756.56;5228933;28;20079;-71
2022/01/31 07:29:35;;;;;;;15.32;3.83;;;;;;;5.68;100.00;100754.56;5225141;28;20160;-72
2022/01/31 07:32:12;;;;;;;21.35;3.75;;;;;;;5.70;100.00;100746.69;5231951;28;20061;-72
2022/01/31 07:34:46;;;;;;;15.18;2.92;;;;;;;5.74;100.00;100751.59;5223000;28;20171;-72
2022/01/31 07:37:17;;;;;;;18.23;3.83;;;;;;;5.81;100.00;100762.41;5209406;28;20397;-72
2022/01/31 07:39:49;;;;;;;16.30;2.97;;;;;;;5.84;100.00;100777.81;5225945;28;20025;-72
2022/01/31 07:42:20;;;;;;;20.88;4.07;;;;;;;5.88;100.00;100787.09;5224341;28;20079;-72
2022/01/31 07:44:53;;;;;;;19.75;3.38;;;;;;;5.78;100.00;100786.84;5226941;28;20026;-71
2022/01/31 07:47:24;;;;;;;17.83;4.15;;;;;;;5.75;100.00;100787.03;5223808;28;20378;-71
2022/01/31 07:49:55;;;;;;;15.13;3.30;;;;;;;5.74;100.00;100794.94;5230596;28;20041;-71
2022/01/31 07:52:27;;;;;;;15.57;2.83;;;;;;;5.81;100.00;100791.00;5230611;28;20069;-71
2022/01/31 07:54:58;;;;;;;15.02;3.30;;;;;;;5.81;100.00;100797.03;5221234;28;20053;-72
2022/01/31 07:57:29;;;;;;;23.27;4.03;;;;;;;5.79;100.00;100795.47;5223167;28;20026;-71
2022/01/31 08:00:03;;;;;;;21.90;4.68;;;;;;;5.76;100.00;100793.91;5227583;28;20507;-72
2022/01/31 08:02:35;;;;;;;16.52;3.83;;;;;;;5.87;100.00;100793.19;5221128;28;20139;-73
2022/01/31 08:05:07;;;;;;;22.58;4.50;;;;;;;5.77;100.00;100790.38;5225982;28;20124;-73
2022/01/31 08:07:38;;;;;;;14.60;3.30;;;;;;;5.81;100.00;100785.81;5225093;28;20434;-73
2022/01/31 08:10:10;;;;;;;23.88;4.43;;;;;;;5.83;100.00;100794.31;5228211;28;20353;-73
2022/01/31 08:12:42;;;;;;;15.85;3.53;;;;;;;5.81;100.00;100796.22;5228591;28;20030;-72
2022/01/31 08:15:22;;;;;;;23.07;4.53;;;;;;;5.81;100.00;100785.81;5228384;28;20040;-72
2022/01/31 08:17:54;;;;;;;18.25;4.15;;;;;;;5.86;100.00;100765.53;5210286;28;20877;-72
2022/01/31 08:20:25;;;;;;;17.27;3.45;;;;;;;5.85;100.00;100793.31;5231109;28;20060;-71
2022/01/31 08:22:56;;;;;;;23.33;4.45;;;;;;;5.91;100.00;100799.88;5222458;28;20092;-72
2022/01/31 08:25:29;;;;;;;19.75;4.18;;;;;;;5.90;100.00;100799.97;5221641;28;20026;-72
2022/01/31 08:28:06;;;;;;;19.07;4.13;;;;;;;5.86;100.00;100820.97;5223667;28;20036;-72
2022/01/31 08:30:47;;;;;;;23.58;4.90;;;;;;;5.78;100.00;100802.44;5225552;28;20055;-72
2022/01/31 08:36:17;;;;;;;17.98;5.32;;;;;;;5.87;100.00;100821.78;5192315;28;20042;-72
2022/01/31 08:38:49;;;;;;;29.48;4.95;;;;;;;5.96;100.00;100807.41;5223345;28;20248;-72
2022/01/31 08:41:20;;;;;;;26.98;4.50;;;;;;;5.94;100.00;100817.06;5223792;28;20034;-73
2022/01/31 08:43:52;;;;;;;22.10;4.82;;;;;;;5.94;100.00;100830.06;5223609;28;20502;-73
2022/01/31 08:46:23;;;;;;;31.45;6.47;;;;;;;5.91;100.00;100823.28;5225777;28;20021;-73
2022/01/31 08:48:55;;;;;;;21.15;4.03;;;;;;;5.92;100.00;100811.97;5225022;28;20049;-72
2022/01/31 08:51:26;;;;;;;27.70;4.50;;;;;;;5.97;100.00;100812.50;5223811;28;20040;-73
2022/01/31 08:53:58;;;;;;;24.45;3.80;;;;;;;6.06;100.00;100817.09;5225134;28;20049;-72
2022/01/31 08:56:29;;;;;;;22.73;5.10;;;;;;;6.04;100.00;100813.75;5221120;28;20022;-72
2022/01/31 08:59:02;;;;;;;22.00;4.47;;;;;;;6.06;100.00;100824.03;5220301;28;20033;-72
2022/01/31 09:01:34;;;;;;;21.95;4.68;;;;;;;6.07;100.00;100833.53;5205967;28;20022;-72
2022/01/31 09:04:08;;;;;;;22.17;5.40;;;;;;;6.08;100.00;100828.22;5223030;28;20060;-73
2022/01/31 09:06:39;;;;;;;23.88;5.30;;;;;;;6.03;100.00;100848.50;5222674;28;20080;-72
2022/01/31 09:09:16;;;;;;;21.25;4.47;;;;;;;6.06;100.00;100827.50;5223498;28;20394;-73
2022/01/31 09:11:48;;;;;;;21.55;4.05;;;;;;;5.96;100.00;100856.81;5225805;28;20025;-73
2022/01/31 09:14:19;;;;;;;17.00;3.00;;;;;;;5.93;100.00;100847.44;5222047;28;20052;-73
2022/01/31 09:16:51;;;;;;;16.77;3.42;;;;;;;5.98;100.00;100855.75;5224710;28;20034;-74
2022/01/31 09:19:23;;;;;;;19.02;3.55;;;;;;;5.96;100.00;100856.81;5205161;28;20047;-73
2022/01/31 09:21:55;;;;;;;17.73;3.53;;;;;;;5.89;100.00;100845.09;5224186;28;20026;-72
2022/01/31 09:24:26;;;;;;;19.60;3.95;;;;;;;5.95;100.00;100848.19;5219128;28;20478;-72
2022/01/31 09:26:57;;;;;;;18.30;4.15;;;;;;;5.98;100.00;100845.34;5216300;28;20265;-72
2022/01/31 09:29:28;;;;;;;20.92;4.57;;;;;;;5.97;100.00;100841.09;5200102;28;20400;-73
2022/01/31 09:32:02;;;;;;;23.67;4.28;;;;;;;5.92;100.00;100826.72;5222320;28;20375;-73
2022/01/31 09:34:34;;;;;;;27.83;5.03;;;;;;;5.99;100.00;100846.22;5220457;28;20026;-73
2022/01/31 09:37:06;;;;;;;24.50;3.67;;;;;;;6.05;100.00;100859.63;5224262;28;20036;-72
2022/01/31 09:39:37;;;;;;;18.10;3.70;;;;;;;5.95;100.00;100824.78;5221801;28;20403;-73
2022/01/31 09:42:12;;;;;;;21.42;3.97;;;;;;;6.00;100.00;100853.06;5223951;28;20033;-73
2022/01/31 09:44:51;;;;;;;20.88;3.90;;;;;;;6.02;100.00;100870.25;5220685;28;20091;-73
2022/01/31 09:47:25;;;;;;;24.58;3.60;;;;;;;6.01;100.00;100873.78;5222007;28;20017;-73
2022/01/31 09:49:56;;;;;;;23.05;4.57;;;;;;;5.94;100.00;100869.06;5223690;28;20032;-73
2022/01/31 09:52:27;;;;;;;20.45;3.55;;;;;;;5.98;100.00;100883.53;5222343;28;20474;-73
2022/01/31 09:54:58;;;;;;;24.45;5.13;;;;;;;5.95;100.00;100883.75;5220694;28;20483;-74
2022/01/31 09:57:30;;;;;;;29.05;5.25;;;;;;;5.90;100.00;100910.00;5218281;28;20462;-73
2022/01/31 10:00:04;;;;;;;27.75;4.93;;;;;;;5.82;100.00;100892.28;5217630;28;20026;-74
2022/01/31 10:02:35;;;;;;;27.88;5.68;;;;;;;5.88;100.00;100916.25;5203443;28;20044;-74
2022/01/31 10:05:08;;;;;;;24.17;4.63;;;;;;;5.92;100.00;100918.59;5222771;28;20030;-74
2022/01/31 10:07:44;;;;;;;30.80;4.93;;;;;;;5.90;100.00;100917.81;5224098;28;20041;-74
2022/01/31 10:10:25;;;;;;;20.42;4.68;;;;;;;5.98;100.00;100927.75;5217682;28;20037;-74
2022/01/31 10:18:19;;;;;;;28.15;5.88;;;;;;;5.84;100.00;100921.66;5221093;28;20809;-74
2022/01/31 10:20:50;;;;;;;32.40;5.88;;;;;;;5.85;100.00;100923.31;5223570;28;20033;-74
2022/01/31 10:23:21;;;;;;;27.23;5.75;;;;;;;5.89;100.00;100936.13;5219010;28;20132;-74
2022/01/31 10:25:53;;;;;;;31.23;7.15;;;;;;;5.88;100.00;100945.69;5220039;28;20026;-74
2022/01/31 10:28:25;;;;;;;43.97;7.75;;;;;;;5.91;100.00;100948.09;5219418;28;20120;-74
2022/01/31 10:30:56;;;;;;;36.72;6.80;;;;;;;5.90;100.00;100959.41;5221175;28;20063;-74
2022/01/31 10:33:30;;;;;;;30.15;5.97;;;;;;;6.00;100.00;100955.31;5201539;28;20037;-74
2022/01/31 10:36:01;;;;;;;29.48;6.25;;;;;;;6.00;100.00;100994.34;5202616;28;20072;-75
2022/01/31 10:38:37;;;;;;;35.90;5.90;;;;;;;6.05;100.00;100971.47;5220505;28;20018;-74
2022/01/31 10:44:54;;;;;;;28.63;6.00;;;;;;;6.19;100.00;100978.41;5220296;28;20037;-74
2022/01/31 10:53:11;;;;;;;31.90;6.32;;;;;;;6.20;100.00;100979.22;5215930;28;20502;-74
2022/01/31 10:55:53;;;;;;;34.03;6.43;;;;;;;6.21;100.00;100983.50;5212005;28;20050;-73
2022/01/31 10:58:24;;;;;;;34.00;6.65;;;;;;;6.16;100.00;100994.19;5210998;28;20025;-74
2022/01/31 11:01:11;;;;;;;34.65;6.05;;;;;;;6.19;100.00;101008.78;5211359;28;20044;-73
2022/01/31 11:03:45;;;;;;;30.27;5.78;;;;;;;6.03;100.00;101009.75;5212786;28;20068;-76
2022/01/31 11:06:17;;;;;;;24.05;5.05;;;;;;;5.99;100.00;101007.44;5224068;28;20084;-74
2022/01/31 11:08:49;;;;;;;22.17;4.60;;;;;;;6.04;100.00;100988.00;5222543;28;20091;-76
2022/01/31 11:11:21;;;;;;;30.63;5.68;;;;;;;6.02;100.00;101000.28;5220732;28;20041;-75
2022/01/31 11:13:54;;;;;;;30.38;5.82;;;;;;;6.03;100.00;101001.94;5223136;28;20026;-74
2022/01/31 11:16:27;;;;;;;29.40;6.10;;;;;;;6.04;100.00;101001.00;5218651;28;20025;-74
2022/01/31 11:19:02;;;;;;;28.55;5.93;;;;;;;6.06;100.00;101014.78;5201842;28;20029;-75
2022/01/31 11:21:39;;;;;;;32.63;5.85;;;;;;;6.03;100.00;101017.56;5224025;28;20152;-75
2022/01/31 11:24:52;;;;;;;30.35;5.82;;;;;;;6.24;100.00;101020.56;5219303;28;20037;-75
2022/01/31 11:27:25;;;;;;;35.38;6.47;;;;;;;6.07;100.00;101021.63;5216059;28;20215;-74
2022/01/31 11:30:00;;;;;;;25.83;5.60;;;;;;;6.13;100.00;101025.59;5205231;28;20610;-75
2022/01/31 11:32:33;;;;;;;28.30;5.57;;;;;;;6.07;100.00;101026.84;5195639;28;20079;-75
2022/01/31 11:35:05;;;;;;;28.10;5.68;;;;;;;6.04;100.00;101015.78;5212510;28;20092;-75
2022/01/31 11:37:37;;;;;;;29.90;5.93;;;;;;;6.07;100.00;101026.84;5209287;28;20029;-75
2022/01/31 11:40:10;;;;;;;28.77;6.07;;;;;;;6.08;100.00;101044.09;5218328;28;20100;-75
2022/01/31 11:42:44;;;;;;;28.42;5.85;;;;;;;5.96;100.00;101044.88;5221877;28;20471;-75
2022/01/31 11:45:29;;;;;;;;;;;;;;;6.18;100.00;101036.56;5221042;28;20040;-76
2022/01/31 11:48:05;;;;;;;27.08;5.10;;;;;;;5.99;100.00;101042.09;5223446;28;19913;-76
2022/01/31 11:50:49;;;;;;;33.38;6.63;;;;;;;5.99;100.00;101052.50;5222795;28;20053;-75
2022/01/31 11:53:29;;;;;;;30.42;6.97;;;;;;;5.95;100.00;101043.22;5222198;28;20528;-75
2022/01/31 11:56:14;;;;;;;32.10;6.70;;;;;;;5.89;100.00;101050.53;5221743;28;20442;-77
2022/01/31 11:58:51;;;;;;;34.97;7.28;;;;;;;5.88;100.00;101051.47;5224193;28;20033;-75
2022/01/31 12:01:25;;;;;;;37.75;7.93;;;;;;;5.85;100.00;101060.28;5222647;28;20033;-75